This is the latest recevied weather packets stored in our database for station/object EW1958. If no packets are shown the sender has not sent any weather packets the latest 10 day(s).
| Time | Temp. | Humidity | Pressure | Rain* | Wind** | Luminosity | Snow |
|---|---|---|---|---|---|---|---|
| 1777491547 | 17.78° C | 59% | 1026.5 hPa | 0 mm | - | - | - |
| 1777491253 | 18.33° C | 58% | 1026.5 hPa | 0 mm | - | - | - |
| 1777490645 | 17.78° C | 58% | 1026.6 hPa | 0 mm | - | - | - |
| 1777490503 | 17.78° C | 59% | 1026.6 hPa | 0 mm | - | - | - |
| 1777490174 | 17.22° C | 57% | 1026.6 hPa | 0 mm | - | - | - |
| 1777489745 | 17.22° C | 59% | 1026.7 hPa | 0 mm | - | - | - |
| 1777489603 | 17.78° C | 58% | 1026.7 hPa | 0 mm | - | - | - |
| 1777489298 | 17.22° C | 59% | 1026.7 hPa | 0 mm | - | - | - |
| 1777488845 | 17.22° C | 58% | 1026.8 hPa | 0 mm | - | - | - |
| 1777488700 | 16.67° C | 61% | 1026.9 hPa | 0 mm | - | - | - |
| 1777488258 | 16.11° C | 64% | 1026.8 hPa | 0 mm | - | - | - |
| 1777488248 | 16.67° C | 61% | 1026.9 hPa | 0 mm | - | - | - |
| 1777487645 | 16.11° C | 62% | 1026.8 hPa | 0 mm | - | - | - |
| 1777487345 | 16.67° C | 59% | 1026.9 hPa | 0 mm | - | - | - |
| 1777487045 | 17.22° C | 60% | 1026.9 hPa | 0 mm | - | - | - |
| 1777486747 | 17.22° C | 62% | 1026.9 hPa | 0 mm | - | - | - |
| 1777486446 | 16.67° C | 62% | 1027 hPa | 0 mm | - | - | - |
| 1777486145 | 16.11° C | 63% | 1027.1 hPa | 0 mm | - | - | - |
| 1777485845 | 16.67° C | 61% | 1027.1 hPa | 0 mm | - | - | - |
| 1777485541 | 16.67° C | 61% | 1027.1 hPa | 0 mm | - | - | - |
| 1777485259 | 16.67° C | 64% | 1027.1 hPa | 0 mm | - | - | - |
| 1777484645 | 16.11° C | 66% | 1027.1 hPa | 0 mm | - | - | - |
| 1777484346 | 15.56° C | 67% | 1027.1 hPa | 0 mm | - | - | - |
| 1777484200 | 15.56° C | 67% | 1027.2 hPa | 0 mm | - | - | - |
| 1777483741 | 15.56° C | 67% | 1027.1 hPa | 0 mm | - | - | - |
* Rain latest hour (hover to see other rain measurements)
** Current wind speed in m/s (hover to see current wind gust speed)